San Julian, Argentina
Current Conditions -  °F | °C
As of 11:00 AM on Friday 24 Oct 2014 (Local Time) from SAWG Reporting Station
Broken Clouds Broken Clouds  
Wind Chill: 59°   Ceiling: 20000
Heat Index: 59°   Visibility: 6mi
Dew Point: 37°   Wind: 39mph
Humidity: 45%   Direction: 270°W
Pressure: 29.77"   Gusts: 55mph
Location:  49.31°S, 67.71°W
Report Text: SAWG 241400Z 27034G48KT 9999 FEW030 BKN200 15/03 Q1008
Loading
Personal Weather Stations






























Interactive Weather Map New forecast layout! Learn more

10-Day Weather Forecast

Advertisements
Track Severe Weather on mobile